Farmersville's Hourly Summary for Tuesday, May 15, 2018
Hour Temp
(f)
RH
(%)
Solar Rad.
(MJ/m2)
Rainfall
(in)
Wind
(mph)
5/15/2018 12:00 AM 75 75 0 0 1.07
5/15/2018 1:00 AM 74 77 0 0 0.4
5/15/2018 2:00 AM 74 78 0 0 0.98
5/15/2018 3:00 AM 73 77 0 0 1.85
5/15/2018 4:00 AM 73 76 0 0 1.09
5/15/2018 5:00 AM 73 75 0 0 0
5/15/2018 6:00 AM 71 80 0 0.04 0.04
5/15/2018 7:00 AM 70 100 0 0.01 0.32
5/15/2018 8:00 AM 69 100 0.09 0.03 0.99
5/15/2018 9:00 AM 69 100 0.19 0 1.58
5/15/2018 10:00 AM 69 100 0.45 0 1.37
5/15/2018 11:00 AM 71 99 0.56 0 1.14
5/15/2018 12:00 PM 73 75 1.08 0 1.86
5/15/2018 1:00 PM 80 51 2.96 0 3.46
5/15/2018 2:00 PM 81 51 2.14 0 4.08
5/15/2018 3:00 PM 83 45 2.33 0 3.11
5/15/2018 4:00 PM 86 44 2.47 0 3.4
5/15/2018 5:00 PM 86 46 1.38 0 2.64
5/15/2018 6:00 PM 81 51 0.7 0 1.32
5/15/2018 7:00 PM 75 65 0.34 0 1.03
5/15/2018 8:00 PM 73 67 0.14 0 1.98
5/15/2018 9:00 PM 70 71 0.01 0 0.99
5/15/2018 10:00 PM 68 75 0 0 0.85
5/15/2018 11:00 PM 67 78 0 0 0.32
Data Summary 74 73 14.84 0.08 1.49